Terminal Aerodrome Forecast
Issued by NWS Quad Cities IA IL

Home | Current Version | Previous Version | Graphics & Text | Print | Product List | Glossary On
Versions: 1 2 3 4 5 6 7 8 9 10 11 12 13 14 15 16
000
FTUS43 KDVN 040653 AAA
TAFMLI
TAF AMD
KMLI 040653Z 0407/0506 00000KT 5SM BR SKC
      TEMPO 0408/0412 2SM BR
     FM041400 VRB03KT P6SM SKC=

USA.gov is the U.S. government's official web portal to all federal, state and local government web resources and services.